Time;durP1;ratioP1;P1;durP2;ratioP2;P2;SDS_P1;SDS_P2;PMS_P1;PMS_P2;Temp;Humidity;BMP_temperature;BMP_pressure;BME280_temperature;BME280_humidity;BME280_pressure;Samples;Min_cycle;Max_cycle;Signal;HPM_P1;HPM_P2
2022/09/18 00:01:37;;;;;;;0.10;0.10;;;;;;;;;;4956982;28;20055;-92
2022/09/18 00:04:50;;;;;;;0.10;0.10;;;;;;;;;;4957714;28;20047;-94
2022/09/18 00:07:16;;;;;;;0.10;0.10;;;;;;;;;;4937335;28;20054;-91
2022/09/18 00:09:43;;;;;;;0.10;0.10;;;;;;;;;;4956605;28;20469;-91
2022/09/18 00:12:09;;;;;;;0.10;0.10;;;;;;;;;;4956768;28;20121;-91
2022/09/18 00:14:35;;;;;;;0.10;0.10;;;;;;;;;;4956950;28;20101;-91
2022/09/18 00:17:01;;;;;;;0.10;0.10;;;;;;;;;;4941028;28;20049;-92
2022/09/18 00:19:27;;;;;;;0.10;0.10;;;;;;;;;;4957605;28;20078;-94
2022/09/18 00:21:53;;;;;;;0.10;0.10;;;;;;;;;;4957745;28;20046;-94
2022/09/18 00:24:21;;;;;;;0.10;0.10;;;;;;;;;;4957348;28;20121;-93
2022/09/18 00:26:47;;;;;;;0.10;0.10;;;;;;;;;;4956991;28;20059;-92
2022/09/18 00:29:14;;;;;;;0.90;0.40;;;;;;;;;;4956672;28;20047;-92
2022/09/18 00:32:10;;;;;;;0.10;0.10;;;;;;;;;;4957120;28;20038;-93
2022/09/18 00:34:37;;;;;;;0.13;0.13;;;;;;;;;;4941446;28;20045;-92
2022/09/18 00:37:03;;;;;;;0.10;0.10;;;;;;;;;;4957598;28;20043;-93
2022/09/18 00:39:30;;;;;;;0.10;0.10;;;;;;;;;;4957260;28;20042;-93
2022/09/18 00:41:57;;;;;;;0.10;0.10;;;;;;;;;;4956965;28;20482;-92
2022/09/18 00:44:29;;;;;;;0.10;0.10;;;;;;;;;;4956317;28;20164;-91
2022/09/18 00:46:57;;;;;;;0.10;0.10;;;;;;;;;;4942598;28;20042;-91
2022/09/18 00:49:24;;;;;;;0.10;0.10;;;;;;;;;;4956162;28;20039;-91
2022/09/18 00:51:53;;;;;;;0.10;0.10;;;;;;;;;;4956683;28;20038;-93
2022/09/18 00:54:23;;;;;;;0.10;0.10;;;;;;;;;;4956142;28;20058;-92
2022/09/18 00:56:50;;;;;;;0.10;0.10;;;;;;;;;;4940862;28;20446;-92
2022/09/18 00:59:18;;;;;;;0.10;0.10;;;;;;;;;;4956454;28;20065;-92
2022/09/18 01:01:46;;;;;;;0.10;0.10;;;;;;;;;;4956635;28;20050;-92
2022/09/18 01:04:13;;;;;;;0.20;0.20;;;;;;;;;;4940196;28;20051;-93
2022/09/18 01:06:39;;;;;;;0.10;0.10;;;;;;;;;;4956607;28;20046;-93
2022/09/18 01:09:05;;;;;;;0.10;0.10;;;;;;;;;;4941086;28;20421;-92
2022/09/18 01:11:59;;;;;;;0.10;0.10;;;;;;;;;;4940696;28;20043;-93
2022/09/18 01:14:40;;;;;;;0.10;0.10;;;;;;;;;;4959959;28;20062;-92
2022/09/18 01:17:17;;;;;;;0.10;0.10;;;;;;;;;;4944827;28;20394;-93
2022/09/18 01:20:00;;;;;;;0.73;0.45;;;;;;;;;;4960488;28;20101;-93
2022/09/18 01:22:44;;;;;;;0.10;0.10;;;;;;;;;;4961027;28;20102;-95
2022/09/18 01:25:15;;;;;;;0.10;0.10;;;;;;;;;;4944844;28;20089;-94
2022/09/18 01:27:41;;;;;;;0.10;0.10;;;;;;;;;;4960732;28;20050;-94
2022/09/18 01:30:08;;;;;;;0.10;0.10;;;;;;;;;;4944496;28;20108;-94
2022/09/18 01:32:41;;;;;;;0.10;0.10;;;;;;;;;;4960541;28;20043;-94
2022/09/18 01:35:08;;;;;;;0.10;0.10;;;;;;;;;;4960295;28;20122;-93
2022/09/18 01:37:40;;;;;;;0.10;0.10;;;;;;;;;;4960611;28;20078;-93
2022/09/18 01:40:13;;;;;;;0.10;0.10;;;;;;;;;;4959928;28;20049;-94
2022/09/18 01:42:39;;;;;;;0.10;0.10;;;;;;;;;;4960301;28;20434;-93
2022/09/18 01:45:08;;;;;;;0.10;0.10;;;;;;;;;;4960147;28;20086;-94
2022/09/18 01:47:42;;;;;;;0.10;0.10;;;;;;;;;;4962828;28;20042;-94
2022/09/18 01:52:40;;;;;;;0.10;0.10;;;;;;;;;;5029348;23;20080;-91
2022/09/18 01:55:25;;;;;;;0.10;0.10;;;;;;;;;;4987570;28;20458;-93
2022/09/18 01:58:02;;;;;;;0.10;0.10;;;;;;;;;;4984395;28;20487;-94
2022/09/18 02:00:30;;;;;;;0.10;0.10;;;;;;;;;;4982671;28;20034;-93
2022/09/18 02:03:04;;;;;;;0.10;0.10;;;;;;;;;;4983025;28;20045;-94
2022/09/18 02:05:32;;;;;;;0.10;0.10;;;;;;;;;;4982536;28;20072;-93
2022/09/18 02:07:59;;;;;;;0.10;0.10;;;;;;;;;;4981815;28;20068;-92
2022/09/18 02:10:26;;;;;;;0.10;0.10;;;;;;;;;;4982379;28;20038;-92
2022/09/18 02:12:53;;;;;;;0.10;0.10;;;;;;;;;;4982263;28;20042;-93
2022/09/18 02:15:44;;;;;;;0.10;0.10;;;;;;;;;;4981678;28;20046;-94
2022/09/18 02:18:46;;;;;;;0.10;0.10;;;;;;;;;;4981742;28;20045;-93
2022/09/18 02:21:13;;;;;;;0.10;0.10;;;;;;;;;;4981582;28;20042;-92
2022/09/18 02:23:39;;;;;;;0.10;0.10;;;;;;;;;;4981759;28;20076;-93
2022/09/18 02:26:06;;;;;;;0.15;0.15;;;;;;;;;;4982533;28;20054;-93
2022/09/18 02:28:32;;;;;;;0.10;0.10;;;;;;;;;;4981636;28;20045;-92
2022/09/18 02:30:58;;;;;;;0.10;0.10;;;;;;;;;;4981318;28;20034;-92
2022/09/18 02:33:28;;;;;;;0.10;0.10;;;;;;;;;;4981236;28;20049;-92
2022/09/18 02:36:02;;;;;;;0.10;0.10;;;;;;;;;;4981036;28;20041;-92
2022/09/18 02:38:30;;;;;;;0.10;0.10;;;;;;;;;;4981146;28;20045;-91
2022/09/18 02:41:17;;;;;;;0.10;0.10;;;;;;;;;;4981012;28;20046;-91
2022/09/18 02:43:52;;;;;;;0.10;0.10;;;;;;;;;;4980858;28;20073;-92
2022/09/18 02:46:40;;;;;;;0.10;0.10;;;;;;;;;;4980853;28;20128;-90
2022/09/18 02:49:24;;;;;;;0.10;0.10;;;;;;;;;;4980811;28;20041;-92
2022/09/18 02:51:52;;;;;;;0.10;0.10;;;;;;;;;;4980400;28;20054;-92
2022/09/18 02:54:51;;;;;;;0.10;0.10;;;;;;;;;;4980908;28;20038;-92
2022/09/18 02:57:31;;;;;;;0.20;0.20;;;;;;;;;;4997687;28;20112;-93
2022/09/18 02:59:58;;;;;;;0.10;0.10;;;;;;;;;;4997352;28;20056;-93
2022/09/18 03:02:24;;;;;;;0.10;0.10;;;;;;;;;;4981158;28;20085;-93
2022/09/18 03:04:50;;;;;;;0.10;0.10;;;;;;;;;;4980979;28;20045;-93
2022/09/18 03:07:17;;;;;;;0.10;0.10;;;;;;;;;;4982335;28;20503;-93
2022/09/18 03:09:57;;;;;;;0.10;0.10;;;;;;;;;;4982694;28;20038;-93
2022/09/18 03:12:23;;;;;;;0.10;0.10;;;;;;;;;;4984222;28;20046;-94
2022/09/18 03:14:49;;;;;;;0.10;0.10;;;;;;;;;;4983356;28;20551;-93
2022/09/18 03:17:22;;;;;;;0.10;0.10;;;;;;;;;;4982478;28;20048;-93
2022/09/18 03:19:48;;;;;;;0.10;0.10;;;;;;;;;;4982377;28;20045;-93
2022/09/18 03:22:15;;;;;;;0.10;0.10;;;;;;;;;;4982030;28;20075;-93
2022/09/18 03:24:41;;;;;;;1.05;1.05;;;;;;;;;;4982525;28;20080;-94
2022/09/18 03:27:07;;;;;;;0.10;0.10;;;;;;;;;;4983818;28;20049;-93
2022/09/18 03:29:33;;;;;;;0.10;0.10;;;;;;;;;;4982223;28;20433;-92
2022/09/18 03:31:59;;;;;;;0.10;0.10;;;;;;;;;;4981144;28;20041;-91
2022/09/18 03:34:26;;;;;;;0.10;0.10;;;;;;;;;;4979944;28;20034;-92
2022/09/18 03:36:52;;;;;;;0.10;0.10;;;;;;;;;;4980818;28;20042;-90
2022/09/18 03:39:19;;;;;;;0.10;0.10;;;;;;;;;;4980315;28;20407;-92
2022/09/18 03:41:45;;;;;;;0.10;0.10;;;;;;;;;;4981885;28;20444;-93
2022/09/18 03:44:11;;;;;;;0.10;0.10;;;;;;;;;;4982223;28;20054;-93
2022/09/18 03:46:37;;;;;;;0.10;0.10;;;;;;;;;;4981819;28;20473;-94
2022/09/18 03:49:03;;;;;;;0.10;0.10;;;;;;;;;;4980618;28;20038;-95
2022/09/18 03:51:29;;;;;;;0.10;0.10;;;;;;;;;;4980264;28;20069;-95
2022/09/18 03:53:55;;;;;;;0.10;0.10;;;;;;;;;;4979876;28;20486;-95
2022/09/18 03:56:21;;;;;;;0.10;0.10;;;;;;;;;;4980406;28;20041;-95
2022/09/18 03:58:47;;;;;;;0.10;0.10;;;;;;;;;;4980334;28;20038;-94
2022/09/18 04:01:13;;;;;;;0.10;0.10;;;;;;;;;;4980553;28;20041;-94
2022/09/18 04:03:39;;;;;;;0.10;0.10;;;;;;;;;;4980311;28;20069;-94
2022/09/18 04:06:06;;;;;;;0.10;0.10;;;;;;;;;;4979809;28;20049;-94
2022/09/18 04:08:33;;;;;;;0.10;0.10;;;;;;;;;;4980445;28;20048;-94
2022/09/18 04:11:03;;;;;;;0.10;0.10;;;;;;;;;;4980654;28;20037;-94
2022/09/18 04:13:30;;;;;;;0.10;0.10;;;;;;;;;;4980338;28;20048;-94
2022/09/18 04:15:56;;;;;;;0.10;0.10;;;;;;;;;;4980142;28;20060;-93
2022/09/18 04:18:22;;;;;;;0.10;0.10;;;;;;;;;;4980282;28;20034;-96
2022/09/18 04:20:50;;;;;;;0.10;0.10;;;;;;;;;;4979761;28;20054;-92
2022/09/18 04:23:16;;;;;;;0.10;0.10;;;;;;;;;;4980653;28;20045;-91
2022/09/18 04:25:42;;;;;;;0.10;0.10;;;;;;;;;;4980593;28;20132;-93
2022/09/18 04:28:09;;;;;;;0.10;0.10;;;;;;;;;;4979462;28;20125;-93
2022/09/18 04:30:35;;;;;;;0.10;0.10;;;;;;;;;;4979500;28;20038;-93
2022/09/18 04:33:01;;;;;;;0.10;0.10;;;;;;;;;;4979480;28;20096;-93
2022/09/18 04:35:27;;;;;;;0.10;0.10;;;;;;;;;;4979922;28;20096;-93
2022/09/18 04:37:53;;;;;;;0.10;0.10;;;;;;;;;;4979694;28;20046;-94
2022/09/18 04:40:19;;;;;;;0.10;0.10;;;;;;;;;;4979532;28;20068;-93
2022/09/18 04:42:45;;;;;;;0.10;0.10;;;;;;;;;;4979971;28;20041;-93
2022/09/18 04:45:11;;;;;;;0.10;0.10;;;;;;;;;;4979599;28;20060;-93
2022/09/18 04:47:37;;;;;;;0.10;0.10;;;;;;;;;;4982736;28;20046;-93
2022/09/18 04:50:04;;;;;;;0.10;0.10;;;;;;;;;;4983421;28;20535;-93
2022/09/18 04:52:30;;;;;;;0.10;0.10;;;;;;;;;;4982687;28;20115;-93
2022/09/18 04:54:58;;;;;;;0.10;0.10;;;;;;;;;;4984098;28;20041;-94
2022/09/18 04:57:24;;;;;;;0.10;0.10;;;;;;;;;;4983013;28;20041;-92
2022/09/18 04:59:52;;;;;;;0.57;0.57;;;;;;;;;;4999501;28;20073;-93
2022/09/18 05:02:20;;;;;;;0.10;0.10;;;;;;;;;;4983323;28;20048;-94
2022/09/18 05:04:46;;;;;;;0.10;0.10;;;;;;;;;;4983674;28;20100;-96
2022/09/18 05:07:12;;;;;;;0.10;0.10;;;;;;;;;;4983539;28;20049;-94
2022/09/18 05:09:38;;;;;;;0.10;0.10;;;;;;;;;;4983033;28;20037;-92
2022/09/18 05:12:04;;;;;;;0.10;0.10;;;;;;;;;;4982794;28;20038;-92
2022/09/18 05:14:30;;;;;;;0.10;0.10;;;;;;;;;;4982877;28;20038;-92
2022/09/18 05:16:57;;;;;;;0.10;0.10;;;;;;;;;;4982363;28;20045;-93
2022/09/18 05:19:25;;;;;;;0.10;0.10;;;;;;;;;;4982819;28;20571;-93
2022/09/18 05:21:51;;;;;;;0.10;0.10;;;;;;;;;;4982872;28;20046;-94
2022/09/18 05:24:17;;;;;;;0.10;0.10;;;;;;;;;;4983035;28;20037;-92
2022/09/18 05:26:44;;;;;;;0.10;0.10;;;;;;;;;;4983726;28;20052;-94
2022/09/18 05:29:30;;;;;;;0.10;0.10;;;;;;;;;;4984121;28;20124;-93
2022/09/18 05:32:00;;;;;;;0.10;0.10;;;;;;;;;;4998617;28;20371;-94
2022/09/18 05:34:27;;;;;;;0.10;0.10;;;;;;;;;;4982829;28;20038;-93
2022/09/18 05:36:54;;;;;;;0.10;0.10;;;;;;;;;;4983559;28;20064;-94
2022/09/18 05:39:20;;;;;;;0.10;0.10;;;;;;;;;;4982971;28;20048;-92
2022/09/18 05:41:49;;;;;;;0.10;0.10;;;;;;;;;;4980154;28;20405;-91
2022/09/18 05:44:15;;;;;;;0.10;0.10;;;;;;;;;;4998304;28;20038;-92
2022/09/18 05:46:41;;;;;;;0.10;0.10;;;;;;;;;;4982201;28;20184;-93
2022/09/18 05:49:07;;;;;;;0.10;0.10;;;;;;;;;;4966810;28;20064;-93
2022/09/18 05:51:33;;;;;;;0.10;0.10;;;;;;;;;;4974653;28;20089;-94
2022/09/18 05:53:59;;;;;;;0.10;0.10;;;;;;;;;;4982283;28;20371;-91
2022/09/18 05:56:26;;;;;;;0.10;0.10;;;;;;;;;;4982848;28;20038;-92
2022/09/18 05:58:53;;;;;;;0.10;0.10;;;;;;;;;;4981012;28;20120;-91
2022/09/18 06:01:19;;;;;;;0.10;0.10;;;;;;;;;;4982156;28;20042;-91
2022/09/18 06:03:45;;;;;;;0.10;0.10;;;;;;;;;;4981675;28;20058;-91
2022/09/18 06:06:11;;;;;;;0.22;0.22;;;;;;;;;;4981434;28;20038;-90
2022/09/18 06:08:37;;;;;;;0.10;0.10;;;;;;;;;;4981501;28;20565;-91
2022/09/18 06:11:03;;;;;;;0.10;0.10;;;;;;;;;;4981361;28;20070;-91
2022/09/18 06:13:29;;;;;;;0.10;0.10;;;;;;;;;;4981105;28;20124;-91
2022/09/18 06:15:56;;;;;;;0.10;0.10;;;;;;;;;;4966776;28;20073;-90
2022/09/18 06:18:22;;;;;;;0.10;0.10;;;;;;;;;;4965161;28;20126;-90
2022/09/18 06:20:55;;;;;;;0.10;0.10;;;;;;;;;;4965291;28;20089;-91
2022/09/18 06:23:21;;;;;;;0.10;0.10;;;;;;;;;;4964885;28;20045;-92
2022/09/18 06:25:47;;;;;;;0.10;0.10;;;;;;;;;;4965390;28;20081;-93
2022/09/18 06:28:13;;;;;;;0.10;0.10;;;;;;;;;;4965054;28;20512;-90
2022/09/18 06:30:47;;;;;;;0.10;0.10;;;;;;;;;;4964811;28;20038;-92
2022/09/18 06:33:16;;;;;;;0.10;0.10;;;;;;;;;;4981195;28;20034;-92
2022/09/18 06:35:47;;;;;;;0.10;0.10;;;;;;;;;;4979802;28;20508;-93
2022/09/18 06:38:27;;;;;;;1.30;0.43;;;;;;;;;;4982432;28;20514;-96
2022/09/18 06:40:57;;;;;;;0.10;0.10;;;;;;;;;;4991189;28;20042;-96
2022/09/18 06:43:23;;;;;;;0.10;0.10;;;;;;;;;;4966778;28;20041;-93
2022/09/18 06:45:53;;;;;;;0.10;0.10;;;;;;;;;;4966195;28;20034;-95
2022/09/18 06:48:20;;;;;;;0.10;0.10;;;;;;;;;;4965786;28;20103;-95
2022/09/18 06:50:50;;;;;;;0.10;0.10;;;;;;;;;;4967974;28;20058;-95
2022/09/18 06:53:28;;;;;;;0.10;0.10;;;;;;;;;;4970246;28;20052;-96
2022/09/18 06:55:58;;;;;;;0.10;0.10;;;;;;;;;;4970196;28;20038;-96
2022/09/18 06:58:24;;;;;;;0.10;0.10;;;;;;;;;;4966770;28;20092;-95
2022/09/18 07:00:50;;;;;;;0.10;0.10;;;;;;;;;;4965224;28;20096;-95
2022/09/18 07:03:16;;;;;;;0.10;0.10;;;;;;;;;;4965976;28;20045;-94
2022/09/18 07:05:45;;;;;;;0.10;0.10;;;;;;;;;;4965345;28;20052;-94
2022/09/18 07:08:11;;;;;;;0.10;0.10;;;;;;;;;;4982521;28;20182;-92
2022/09/18 07:10:39;;;;;;;0.10;0.10;;;;;;;;;;4979441;28;20038;-92
2022/09/18 07:13:05;;;;;;;0.10;0.10;;;;;;;;;;4980830;28;20053;-92
2022/09/18 07:15:31;;;;;;;0.10;0.10;;;;;;;;;;4980493;28;20038;-89
2022/09/18 07:17:58;;;;;;;0.10;0.10;;;;;;;;;;4979242;28;20171;-90
2022/09/18 07:20:24;;;;;;;0.10;0.10;;;;;;;;;;4979476;28;20049;-89
2022/09/18 07:22:54;;;;;;;0.20;0.20;;;;;;;;;;4979587;28;20041;-89
2022/09/18 07:25:20;;;;;;;0.10;0.10;;;;;;;;;;4979567;28;20048;-88
2022/09/18 07:27:46;;;;;;;0.10;0.10;;;;;;;;;;4979337;28;20041;-89
2022/09/18 07:32:58;;;;;;;0.10;0.10;;;;;;;;;;5360856;23;20532;-95
2022/09/18 07:35:34;;;;;;;0.10;0.10;;;;;;;;;;5000059;28;20160;-95
2022/09/18 07:38:17;;;;;;;0.10;0.10;;;;;;;;;;4996888;28;20508;-94
2022/09/18 07:40:44;;;;;;;0.10;0.10;;;;;;;;;;4977095;28;20289;-92
2022/09/18 07:43:11;;;;;;;0.10;0.10;;;;;;;;;;4960461;28;20494;-92
2022/09/18 07:45:37;;;;;;;0.10;0.10;;;;;;;;;;4960615;28;20046;-93
2022/09/18 07:48:04;;;;;;;0.10;0.10;;;;;;;;;;4960282;28;20089;-92
2022/09/18 07:50:30;;;;;;;0.10;0.10;;;;;;;;;;4959995;28;20528;-92
2022/09/18 07:52:56;;;;;;;0.10;0.10;;;;;;;;;;4960436;28;20038;-93
2022/09/18 07:55:23;;;;;;;0.10;0.10;;;;;;;;;;4959090;28;20046;-92
2022/09/18 07:57:53;;;;;;;0.10;0.10;;;;;;;;;;4960039;28;20042;-92
2022/09/18 08:00:19;;;;;;;0.10;0.10;;;;;;;;;;4960121;28;20042;-92
2022/09/18 08:02:47;;;;;;;0.10;0.10;;;;;;;;;;4975875;28;20055;-91
2022/09/18 08:05:13;;;;;;;0.10;0.10;;;;;;;;;;4961041;28;20038;-92
2022/09/18 08:07:39;;;;;;;0.10;0.10;;;;;;;;;;4960136;28;20137;-93
2022/09/18 08:10:05;;;;;;;0.25;0.20;;;;;;;;;;4960521;28;20128;-92
2022/09/18 08:12:31;;;;;;;0.10;0.10;;;;;;;;;;4960299;28;20037;-93
2022/09/18 08:14:57;;;;;;;0.10;0.10;;;;;;;;;;4961366;28;20042;-92
2022/09/18 08:17:25;;;;;;;0.10;0.10;;;;;;;;;;4960296;28;20244;-92
2022/09/18 08:19:52;;;;;;;0.10;0.10;;;;;;;;;;4960049;28;20038;-93
2022/09/18 08:22:18;;;;;;;0.10;0.10;;;;;;;;;;4960077;28;20052;-93
2022/09/18 08:24:44;;;;;;;0.10;0.10;;;;;;;;;;4961721;28;20042;-90
2022/09/18 08:27:16;;;;;;;0.10;0.10;;;;;;;;;;4943734;28;20068;-94
2022/09/18 08:29:48;;;;;;;0.10;0.10;;;;;;;;;;4961136;28;20053;-96
2022/09/18 08:32:15;;;;;;;0.10;0.10;;;;;;;;;;4963654;28;20089;-93
2022/09/18 08:34:41;;;;;;;0.25;0.25;;;;;;;;;;4998591;28;20042;-95
2022/09/18 08:37:10;;;;;;;0.10;0.10;;;;;;;;;;5002652;28;20091;-96
2022/09/18 08:40:02;;;;;;;0.10;0.10;;;;;;;;;;5013357;28;20087;-95
2022/09/18 09:26:06;;;;;;;0.10;0.10;;;;;;;;;;5487659;22;20112;-94
2022/09/18 09:28:44;;;;;;;0.10;0.10;;;;;;;;;;5015103;28;20500;-94
2022/09/18 09:31:11;;;;;;;0.10;0.10;;;;;;;;;;5011609;28;20477;-94
2022/09/18 09:34:05;;;;;;;0.10;0.10;;;;;;;;;;4999645;28;20037;-96
2022/09/18 09:36:34;;;;;;;0.10;0.10;;;;;;;;;;5006144;28;20037;-93
2022/09/18 09:39:06;;;;;;;0.20;0.20;;;;;;;;;;4999338;28;20072;-95
2022/09/18 09:41:45;;;;;;;0.10;0.10;;;;;;;;;;5000531;28;20176;-96
2022/09/18 09:44:22;;;;;;;0.10;0.10;;;;;;;;;;5020380;28;20133;-92
2022/09/18 09:47:08;;;;;;;0.00;0.00;;;;;;;;;;4999480;28;20044;-94
2022/09/18 10:02:29;;;;;;;0.10;0.10;;;;;;;;;;5822424;22;20493;-93
2022/09/18 10:08:47;;;;;;;0.10;0.10;;;;;;;;;;5004162;28;20110;-94
2022/09/18 10:11:15;;;;;;;0.10;0.10;;;;;;;;;;4996623;28;20041;-91
2022/09/18 10:13:42;;;;;;;0.10;0.10;;;;;;;;;;4965421;28;20038;-91
2022/09/18 10:16:19;;;;;;;0.10;0.10;;;;;;;;;;4981014;28;20486;-91
2022/09/18 10:18:46;;;;;;;0.10;0.10;;;;;;;;;;4981031;28;20038;-91
2022/09/18 10:21:21;;;;;;;1.10;1.02;;;;;;;;;;4965285;28;20050;-96
2022/09/18 10:24:12;;;;;;;0.10;0.10;;;;;;;;;;4968474;28;20489;-94
2022/09/18 10:26:57;;;;;;;0.10;0.10;;;;;;;;;;4964972;28;20046;-95
2022/09/18 10:29:26;;;;;;;0.30;0.15;;;;;;;;;;4965181;28;20566;-95
2022/09/18 10:31:56;;;;;;;0.10;0.10;;;;;;;;;;4981969;28;20044;-94
2022/09/18 10:34:44;;;;;;;0.10;0.10;;;;;;;;;;4967249;28;20096;-94
2022/09/18 10:37:29;;;;;;;0.10;0.10;;;;;;;;;;5003417;28;20072;-95
2022/09/18 10:49:34;;;;;;;0.10;0.10;;;;;;;;;;5019073;28;20111;-94
2022/09/18 10:52:33;;;;;;;0.10;0.10;;;;;;;;;;4982972;28;20074;-96
2022/09/18 10:58:30;;;;;;;0.10;0.10;;;;;;;;;;4999382;28;20041;-95
2022/09/18 11:01:03;;;;;;;0.10;0.10;;;;;;;;;;4962805;28;20052;-95
2022/09/18 11:03:31;;;;;;;0.40;0.40;;;;;;;;;;4967285;28;20074;-93
2022/09/18 11:05:57;;;;;;;0.10;0.10;;;;;;;;;;4963321;28;20157;-95
2022/09/18 11:08:43;;;;;;;0.10;0.10;;;;;;;;;;4971197;28;20038;-96
2022/09/18 11:11:31;;;;;;;0.10;0.10;;;;;;;;;;4968901;28;20046;-96
2022/09/18 11:14:32;;;;;;;;;;;;;;;;;;;;;
2022/09/18 11:17:12;;;;;;;0.10;0.10;;;;;;;;;;4993521;28;19925;-94
2022/09/18 11:19:39;;;;;;;0.10;0.10;;;;;;;;;;4978029;28;20124;-92
2022/09/18 11:22:05;;;;;;;0.10;0.10;;;;;;;;;;4960786;28;20045;-88
2022/09/18 11:24:35;;;;;;;0.10;0.10;;;;;;;;;;4960568;28;20038;-91
2022/09/18 11:27:29;;;;;;;0.10;0.10;;;;;;;;;;4962283;28;20065;-93
2022/09/18 11:30:37;;;;;;;0.10;0.10;;;;;;;;;;4975036;28;20054;-92
2022/09/18 11:33:25;;;;;;;0.10;0.10;;;;;;;;;;4932449;29;20055;-93
2022/09/18 11:35:56;;;;;;;0.10;0.10;;;;;;;;;;4917869;29;20051;-93
2022/09/18 11:38:22;;;;;;;0.10;0.10;;;;;;;;;;4902224;29;20492;-92
2022/09/18 11:40:58;;;;;;;0.10;0.10;;;;;;;;;;4902161;29;20043;-95
2022/09/18 11:43:35;;;;;;;0.10;0.10;;;;;;;;;;4918818;29;20089;-94
2022/09/18 11:46:19;;;;;;;0.20;0.20;;;;;;;;;;4921592;29;20467;-91
2022/09/18 11:48:53;;;;;;;0.10;0.10;;;;;;;;;;4953126;29;20058;-93
2022/09/18 11:51:25;;;;;;;0.10;0.10;;;;;;;;;;4920958;29;20141;-92
2022/09/18 11:53:54;;;;;;;0.10;0.10;;;;;;;;;;4953117;29;20055;-94
2022/09/18 11:56:41;;;;;;;0.10;0.10;;;;;;;;;;4920809;29;20043;-92
2022/09/18 11:59:28;;;;;;;0.10;0.10;;;;;;;;;;4922034;29;20098;-93
2022/09/18 12:02:00;;;;;;;0.10;0.10;;;;;;;;;;4954202;29;20067;-95
2022/09/18 12:04:38;;;;;;;0.10;0.10;;;;;;;;;;4977420;28;20069;-89
2022/09/18 12:07:10;;;;;;;0.10;0.10;;;;;;;;;;4963274;28;20396;-90
2022/09/18 12:09:39;;;;;;;0.10;0.10;;;;;;;;;;4962922;28;20128;-91
2022/09/18 12:12:08;;;;;;;0.10;0.10;;;;;;;;;;4978584;28;20109;-89
2022/09/18 12:14:36;;;;;;;0.10;0.10;;;;;;;;;;4963072;28;20390;-90
2022/09/18 12:17:13;;;;;;;0.10;0.10;;;;;;;;;;4962823;28;20116;-91
2022/09/18 12:19:48;;;;;;;0.10;0.10;;;;;;;;;;4962804;28;20100;-90
2022/09/18 12:22:17;;;;;;;1.10;0.43;;;;;;;;;;4979329;28;20520;-90
2022/09/18 12:24:43;;;;;;;0.10;0.10;;;;;;;;;;4978449;28;20052;-90
2022/09/18 12:27:09;;;;;;;0.10;0.10;;;;;;;;;;4978818;28;20120;-89
2022/09/18 12:29:52;;;;;;;0.10;0.10;;;;;;;;;;4978994;28;20042;-93
2022/09/18 12:32:34;;;;;;;0.10;0.10;;;;;;;;;;4979128;28;20046;-91
2022/09/18 12:35:00;;;;;;;0.10;0.10;;;;;;;;;;4963615;28;20092;-92
2022/09/18 12:37:45;;;;;;;0.10;0.10;;;;;;;;;;4978696;28;20049;-90
2022/09/18 12:40:11;;;;;;;0.10;0.10;;;;;;;;;;4994557;28;20054;-93
2022/09/18 12:42:42;;;;;;;0.10;0.10;;;;;;;;;;4978853;28;20389;-92
2022/09/18 12:45:20;;;;;;;0.10;0.10;;;;;;;;;;4988050;28;20058;-95
2022/09/18 12:47:49;;;;;;;0.10;0.10;;;;;;;;;;4995512;28;20145;-94
2022/09/18 12:50:34;;;;;;;0.10;0.10;;;;;;;;;;4994951;28;20228;-93
2022/09/18 12:53:40;;;;;;;0.10;0.10;;;;;;;;;;5000071;28;20034;-96
2022/09/18 12:56:41;;;;;;;0.10;0.10;;;;;;;;;;5021084;28;20081;-96
2022/09/18 12:59:25;;;;;;;0.10;0.10;;;;;;;;;;5010824;28;20485;-96
2022/09/18 13:01:58;;;;;;;0.10;0.10;;;;;;;;;;5017446;28;20073;-95
2022/09/18 13:04:26;;;;;;;0.10;0.10;;;;;;;;;;4998589;28;20393;-94
2022/09/18 13:06:54;;;;;;;0.10;0.10;;;;;;;;;;4995291;28;20046;-94
2022/09/18 13:09:28;;;;;;;0.10;0.10;;;;;;;;;;4999674;28;20041;-96
2022/09/18 13:11:59;;;;;;;0.10;0.10;;;;;;;;;;5012254;28;20042;-96
2022/09/18 13:14:29;;;;;;;0.10;0.10;;;;;;;;;;5014048;28;20065;-96
2022/09/18 13:25:31;;;;;;;0.10;0.10;;;;;;;;;;5707546;22;20345;-95
2022/09/18 13:28:00;;;;;;;0.10;0.10;;;;;;;;;;4983130;28;20068;-95
2022/09/18 13:30:32;;;;;;;0.10;0.10;;;;;;;;;;4982694;28;20042;-95
2022/09/18 13:33:01;;;;;;;0.10;0.10;;;;;;;;;;4983256;28;20056;-95
2022/09/18 13:35:31;;;;;;;0.10;0.10;;;;;;;;;;4982333;28;20049;-95
2022/09/18 13:38:18;;;;;;;0.10;0.10;;;;;;;;;;4982327;28;20073;-94
2022/09/18 13:40:47;;;;;;;0.10;0.10;;;;;;;;;;4998921;28;20048;-93
2022/09/18 13:43:26;;;;;;;0.10;0.10;;;;;;;;;;5009963;28;20068;-94
2022/09/18 13:45:52;;;;;;;0.10;0.10;;;;;;;;;;5000702;28;20100;-94
2022/09/18 13:48:22;;;;;;;0.10;0.10;;;;;;;;;;4999825;28;20042;-95
2022/09/18 13:50:54;;;;;;;0.10;0.10;;;;;;;;;;5004801;28;20068;-94
2022/09/18 15:44:59;;;;;;;0.10;0.10;;;;;;;;;;5212382;23;20052;-95
2022/09/18 15:47:28;;;;;;;0.20;0.20;;;;;;;;;;4920440;29;20044;-94
2022/09/18 15:49:57;;;;;;;0.10;0.10;;;;;;;;;;4919950;29;20121;-96
2022/09/18 15:52:36;;;;;;;0.10;0.10;;;;;;;;;;4902427;29;20071;-96
2022/09/18 15:55:04;;;;;;;0.10;0.10;;;;;;;;;;4917113;29;20088;-94
2022/09/18 15:57:33;;;;;;;0.10;0.10;;;;;;;;;;4885102;29;20056;-95
2022/09/18 16:00:03;;;;;;;0.10;0.10;;;;;;;;;;4885188;29;20159;-94
2022/09/18 16:02:33;;;;;;;0.10;0.10;;;;;;;;;;4885546;29;20571;-94
2022/09/18 16:05:09;;;;;;;0.10;0.10;;;;;;;;;;4890548;29;20047;-95
2022/09/18 16:07:37;;;;;;;0.10;0.10;;;;;;;;;;4886050;29;20044;-95
2022/09/18 16:10:03;;;;;;;0.10;0.10;;;;;;;;;;4886066;29;20123;-95
2022/09/18 16:12:31;;;;;;;0.88;0.20;;;;;;;;;;4886996;29;20051;-95
2022/09/18 16:15:05;;;;;;;0.10;0.10;;;;;;;;;;4918343;29;20071;-95
2022/09/18 16:17:33;;;;;;;0.20;0.20;;;;;;;;;;4919260;29;20080;-95
2022/09/18 16:20:23;;;;;;;0.10;0.10;;;;;;;;;;4906046;29;20040;-95
2022/09/18 16:22:56;;;;;;;0.10;0.10;;;;;;;;;;4926616;29;20055;-95
2022/09/18 16:25:28;;;;;;;0.20;0.20;;;;;;;;;;4890642;29;20044;-94
2022/09/18 16:27:57;;;;;;;0.43;0.43;;;;;;;;;;4885841;29;20055;-93
2022/09/18 16:30:24;;;;;;;0.10;0.10;;;;;;;;;;4885157;29;20048;-95
2022/09/18 16:33:10;;;;;;;0.30;0.30;;;;;;;;;;4885057;29;20040;-94
2022/09/18 16:35:39;;;;;;;0.13;0.13;;;;;;;;;;4902845;29;20055;-96
2022/09/18 16:38:09;;;;;;;0.20;0.20;;;;;;;;;;4887478;29;20051;-96
2022/09/18 16:40:35;;;;;;;0.10;0.10;;;;;;;;;;4883906;29;20048;-95
2022/09/18 16:43:09;;;;;;;0.10;0.10;;;;;;;;;;4887620;29;20412;-96
2022/09/18 16:48:34;;;;;;;0.10;0.10;;;;;;;;;;4905111;29;20496;-96
2022/09/18 16:51:04;;;;;;;0.10;0.10;;;;;;;;;;4890068;29;20048;-96
2022/09/18 16:53:34;;;;;;;0.22;0.22;;;;;;;;;;4889992;29;20068;-96
2022/09/18 16:56:01;;;;;;;0.10;0.10;;;;;;;;;;4888982;29;20047;-95
2022/09/18 16:58:31;;;;;;;0.10;0.10;;;;;;;;;;4919442;29;20044;-94
2022/09/18 17:01:21;;;;;;;0.10;0.10;;;;;;;;;;4888450;29;20036;-95
2022/09/18 17:04:27;;;;;;;0.10;0.10;;;;;;;;;;4931157;29;20188;-95
2022/09/18 17:06:59;;;;;;;0.10;0.10;;;;;;;;;;4892419;29;20160;-96
2022/09/18 17:09:41;;;;;;;0.10;0.10;;;;;;;;;;4941852;29;20040;-95
2022/09/18 17:12:33;;;;;;;0.10;0.10;;;;;;;;;;4930148;29;20036;-96
2022/09/18 17:15:43;;;;;;;0.10;0.10;;;;;;;;;;4920732;29;20167;-92
2022/09/18 17:18:12;;;;;;;0.10;0.10;;;;;;;;;;4925147;29;20044;-92
2022/09/18 17:20:48;;;;;;;0.10;0.10;;;;;;;;;;4890143;29;20406;-94
2022/09/18 17:23:18;;;;;;;0.10;0.10;;;;;;;;;;4922749;29;20048;-95
2022/09/18 17:25:47;;;;;;;0.10;0.10;;;;;;;;;;4920369;29;20096;-95
2022/09/18 18:02:06;;;;;;;0.10;0.10;;;;;;;;;;4920788;29;20107;-93
2022/09/18 18:04:32;;;;;;;0.10;0.10;;;;;;;;;;4902148;29;20522;-92
2022/09/18 18:06:58;;;;;;;0.10;0.10;;;;;;;;;;4886635;29;20048;-92
2022/09/18 18:09:24;;;;;;;0.10;0.10;;;;;;;;;;4886446;29;20112;-93
2022/09/18 18:11:50;;;;;;;0.10;0.10;;;;;;;;;;4901985;29;20044;-94
2022/09/18 18:14:16;;;;;;;0.10;0.10;;;;;;;;;;4885961;29;20072;-92
2022/09/18 18:16:45;;;;;;;0.10;0.10;;;;;;;;;;4886442;29;20412;-93
2022/09/18 18:19:11;;;;;;;0.10;0.10;;;;;;;;;;4885871;29;20123;-93
2022/09/18 18:21:38;;;;;;;0.10;0.10;;;;;;;;;;4886765;29;20389;-93
2022/09/18 18:24:07;;;;;;;0.10;0.10;;;;;;;;;;4886816;29;20123;-93
2022/09/18 18:26:34;;;;;;;0.10;0.10;;;;;;;;;;4886627;29;20232;-93
2022/09/18 18:29:01;;;;;;;0.10;0.10;;;;;;;;;;4885962;29;20059;-93
2022/09/18 18:31:27;;;;;;;0.20;0.20;;;;;;;;;;4885122;29;20048;-92
2022/09/18 18:33:53;;;;;;;0.10;0.10;;;;;;;;;;4900704;29;20055;-93
2022/09/18 18:36:21;;;;;;;0.10;0.10;;;;;;;;;;4886187;29;20100;-92
2022/09/18 18:38:47;;;;;;;0.10;0.10;;;;;;;;;;4885633;29;20597;-91
2022/09/18 18:41:15;;;;;;;0.10;0.10;;;;;;;;;;4885168;29;20333;-92
2022/09/18 18:43:43;;;;;;;0.10;0.10;;;;;;;;;;4885556;29;20048;-91
2022/09/18 18:46:11;;;;;;;0.10;0.10;;;;;;;;;;4885064;29;20052;-91
2022/09/18 18:48:37;;;;;;;0.10;0.10;;;;;;;;;;4885226;29;20044;-92
2022/09/18 18:51:07;;;;;;;0.10;0.10;;;;;;;;;;4885009;29;20131;-91
2022/09/18 18:53:34;;;;;;;0.10;0.10;;;;;;;;;;4885282;29;20087;-92
2022/09/18 18:56:05;;;;;;;0.15;0.15;;;;;;;;;;4885703;29;20107;-92
2022/09/18 18:58:31;;;;;;;0.10;0.10;;;;;;;;;;4885741;29;20544;-92
2022/09/18 19:01:05;;;;;;;0.10;0.10;;;;;;;;;;4884866;29;20488;-92
2022/09/18 19:03:32;;;;;;;0.10;0.10;;;;;;;;;;4884827;29;20466;-89